createdAt,value
2022-12-28T00:01:47.050Z,3.32
2022-12-28T00:04:13.467Z,3.27
2022-12-28T00:06:39.857Z,3.17
2022-12-28T00:09:06.260Z,3.08
2022-12-28T00:11:32.649Z,3.09
2022-12-28T00:13:59.004Z,3.07
2022-12-28T00:16:25.494Z,3.09
2022-12-28T00:18:51.899Z,3.04
2022-12-28T00:21:18.262Z,3.25
2022-12-28T00:23:44.596Z,3.17
2022-12-28T00:26:11.012Z,3.12
2022-12-28T00:28:37.345Z,3.20
2022-12-28T00:31:03.722Z,3.11
2022-12-28T00:33:30.115Z,3.21
2022-12-28T00:35:56.483Z,2.91
2022-12-28T00:38:22.880Z,3.11
2022-12-28T00:40:49.283Z,3.00
2022-12-28T00:43:16.054Z,2.96
2022-12-28T00:45:42.477Z,3.12
2022-12-28T00:48:08.835Z,3.31
2022-12-28T00:50:35.192Z,2.98
2022-12-28T00:53:02.001Z,3.07
2022-12-28T00:55:28.374Z,3.02
2022-12-28T00:57:54.714Z,3.08
2022-12-28T01:00:21.068Z,2.98
2022-12-28T01:02:47.446Z,2.90
2022-12-28T01:05:14.151Z,3.11
2022-12-28T01:07:41.393Z,3.03
2022-12-28T01:10:07.786Z,3.09
2022-12-28T01:12:38.343Z,3.05
2022-12-28T01:15:04.934Z,3.36
2022-12-28T01:17:31.240Z,3.37
2022-12-28T01:19:58.192Z,3.02
2022-12-28T01:22:25.339Z,2.98
2022-12-28T01:24:51.703Z,2.97
2022-12-28T01:27:18.069Z,3.12
2022-12-28T01:29:44.481Z,3.30
2022-12-28T01:32:10.861Z,3.09
2022-12-28T01:34:37.234Z,3.48
2022-12-28T01:37:03.604Z,3.22
2022-12-28T01:39:30.005Z,2.93
2022-12-28T01:41:56.346Z,2.88
2022-12-28T01:44:22.752Z,3.32
2022-12-28T01:46:50.582Z,2.95
2022-12-28T01:49:16.976Z,3.24
2022-12-28T01:51:45.817Z,3.43
2022-12-28T01:54:12.202Z,3.42
2022-12-28T01:56:39.879Z,3.58
2022-12-28T01:59:06.751Z,3.02
2022-12-28T02:01:35.484Z,3.29
2022-12-28T02:04:01.926Z,3.29
2022-12-28T02:06:29.044Z,3.14
2022-12-28T02:08:55.371Z,3.34
2022-12-28T02:11:21.750Z,3.15
2022-12-28T02:13:48.385Z,3.25
2022-12-28T02:16:14.866Z,3.31
2022-12-28T02:18:42.048Z,3.39
2022-12-28T02:21:09.234Z,3.23
2022-12-28T02:23:35.614Z,3.17
2022-12-28T02:26:01.982Z,2.89
2022-12-28T02:28:28.319Z,3.08
2022-12-28T02:30:54.781Z,3.14
2022-12-28T02:33:21.162Z,3.39
2022-12-28T02:35:47.542Z,3.24
2022-12-28T02:38:14.522Z,3.35
2022-12-28T02:40:40.875Z,3.19
2022-12-28T02:43:07.214Z,3.28
2022-12-28T02:45:52.379Z,3.54
2022-12-28T02:48:37.323Z,3.56
2022-12-28T02:51:03.718Z,3.64
2022-12-28T02:53:30.067Z,3.55
2022-12-28T02:56:08.740Z,3.43
2022-12-28T02:58:35.356Z,3.27
2022-12-28T03:01:02.407Z,3.29
2022-12-28T03:03:28.936Z,3.68
2022-12-28T03:06:19.321Z,3.68
2022-12-28T03:08:46.066Z,3.61
2022-12-28T03:11:16.064Z,3.74
2022-12-28T03:13:43.148Z,3.93
2022-12-28T03:16:10.822Z,3.85
2022-12-28T03:18:56.133Z,3.79
2022-12-28T03:21:43.435Z,3.93
2022-12-28T03:24:28.504Z,3.82
2022-12-28T03:27:14.156Z,3.93
2022-12-28T03:30:07.146Z,4.03
2022-12-28T03:32:34.562Z,3.89
2022-12-28T03:35:01.991Z,3.81
2022-12-28T03:37:29.573Z,3.80
2022-12-28T03:39:55.988Z,4.01
2022-12-28T03:42:41.101Z,3.94
2022-12-28T03:45:08.769Z,3.75
2022-12-28T03:47:35.765Z,3.62
2022-12-28T03:50:02.161Z,3.55
2022-12-28T03:52:28.512Z,3.75
2022-12-28T03:54:56.515Z,3.78
2022-12-28T03:57:23.546Z,3.72
2022-12-28T03:59:50.544Z,3.70
2022-12-28T04:02:18.089Z,3.65
2022-12-28T04:04:44.744Z,3.80
2022-12-28T04:07:11.106Z,3.62
2022-12-28T04:09:37.529Z,3.41
2022-12-28T04:12:04.080Z,3.73
2022-12-28T04:14:50.436Z,3.64
2022-12-28T04:17:18.146Z,3.59
2022-12-28T04:19:44.511Z,3.79
2022-12-28T04:22:10.855Z,3.89
2022-12-28T04:24:37.364Z,3.69
2022-12-28T04:27:03.859Z,3.72
2022-12-28T04:29:30.473Z,3.67
2022-12-28T04:32:00.166Z,3.70
2022-12-28T04:34:26.548Z,3.60
2022-12-28T04:36:58.093Z,3.58
2022-12-28T04:39:27.422Z,3.62
2022-12-28T04:42:13.749Z,3.64
2022-12-28T04:44:40.181Z,3.69
2022-12-28T04:47:06.539Z,3.36
2022-12-28T04:49:32.921Z,3.29
2022-12-28T04:51:59.244Z,3.34
2022-12-28T04:54:25.606Z,3.36
2022-12-28T04:56:51.929Z,3.33
2022-12-28T04:59:18.267Z,3.36
2022-12-28T05:01:44.915Z,3.54
2022-12-28T05:04:11.440Z,3.66
2022-12-28T05:06:37.815Z,3.75
2022-12-28T05:09:04.130Z,3.69
2022-12-28T05:11:31.903Z,3.53
2022-12-28T05:13:58.267Z,3.59
2022-12-28T05:16:24.748Z,4.04
2022-12-28T05:18:51.125Z,4.20
2022-12-28T05:21:17.521Z,4.13
2022-12-28T05:23:43.893Z,4.19
2022-12-28T05:26:10.277Z,4.25
2022-12-28T05:28:38.934Z,4.29
2022-12-28T05:31:05.362Z,4.16
2022-12-28T05:33:31.737Z,4.20
2022-12-28T05:35:58.083Z,4.31
2022-12-28T05:38:24.467Z,4.41
2022-12-28T05:40:50.865Z,4.53
2022-12-28T05:43:17.258Z,4.37
2022-12-28T05:45:43.648Z,4.45
2022-12-28T05:48:10.009Z,4.59
2022-12-28T05:50:36.433Z,4.44
2022-12-28T05:53:02.767Z,4.66
2022-12-28T05:55:29.197Z,4.50
2022-12-28T05:57:56.045Z,4.46
2022-12-28T06:00:22.399Z,4.49
2022-12-28T06:02:48.809Z,4.37
2022-12-28T06:05:15.236Z,4.52
2022-12-28T06:07:41.585Z,4.81
2022-12-28T06:10:07.957Z,4.80
2022-12-28T06:12:34.297Z,4.77
2022-12-28T06:15:00.784Z,4.78
2022-12-28T06:17:27.240Z,4.84
2022-12-28T06:19:53.838Z,4.92
2022-12-28T06:22:20.180Z,4.85
2022-12-28T06:24:46.532Z,4.83
2022-12-28T06:27:12.878Z,4.76
2022-12-28T06:29:39.267Z,4.83
2022-12-28T06:32:05.637Z,4.94
2022-12-28T06:34:32.355Z,4.84
2022-12-28T06:37:00.163Z,4.89
2022-12-28T06:39:26.539Z,4.95
2022-12-28T06:41:52.920Z,4.94
2022-12-28T06:44:19.313Z,4.90
2022-12-28T06:46:45.914Z,4.92
2022-12-28T06:49:12.228Z,4.85
2022-12-28T06:51:40.645Z,4.80
2022-12-28T06:54:07.112Z,4.86
2022-12-28T06:56:33.479Z,4.84
2022-12-28T06:59:03.290Z,4.81
2022-12-28T07:01:30.360Z,4.89
2022-12-28T07:03:56.738Z,4.90
2022-12-28T07:06:23.132Z,4.83
2022-12-28T07:08:52.268Z,4.89
2022-12-28T07:11:18.774Z,4.85
2022-12-28T07:13:45.308Z,4.85
2022-12-28T07:16:11.838Z,4.83
2022-12-28T07:18:38.324Z,4.90
2022-12-28T07:21:04.688Z,4.97
2022-12-28T07:23:31.499Z,4.74
2022-12-28T07:25:57.904Z,4.85
2022-12-28T07:28:24.270Z,4.92
2022-12-28T07:30:50.696Z,4.88
2022-12-28T07:33:17.056Z,4.90
2022-12-28T07:35:43.481Z,5.02
2022-12-28T07:38:09.813Z,5.13
2022-12-28T07:40:36.183Z,5.09
2022-12-28T07:43:02.615Z,5.03
2022-12-28T07:45:28.999Z,5.05
2022-12-28T07:47:55.320Z,5.07
2022-12-28T07:50:21.683Z,4.95
2022-12-28T07:52:48.046Z,5.08
2022-12-28T07:55:14.446Z,5.25
2022-12-28T07:57:40.780Z,5.23
2022-12-28T08:00:07.480Z,5.20
2022-12-28T08:02:38.795Z,5.33
2022-12-28T08:05:05.153Z,5.38
2022-12-28T08:07:31.486Z,5.30
2022-12-28T08:09:57.889Z,5.35
2022-12-28T08:12:24.243Z,5.36
2022-12-28T08:14:50.623Z,5.41
2022-12-28T08:17:21.042Z,5.50
2022-12-28T08:19:48.095Z,5.44
2022-12-28T08:22:14.449Z,5.60
2022-12-28T08:24:40.831Z,5.67
2022-12-28T08:27:07.200Z,5.70
2022-12-28T08:29:33.607Z,5.79
2022-12-28T08:32:00.114Z,5.85
2022-12-28T08:34:27.139Z,6.03
2022-12-28T08:37:05.259Z,5.94
2022-12-28T08:39:34.232Z,6.10
2022-12-28T08:42:00.644Z,6.09
2022-12-28T08:44:26.993Z,6.26
2022-12-28T08:46:53.429Z,6.18
2022-12-28T08:49:19.837Z,6.25
2022-12-28T08:51:46.220Z,6.23
2022-12-28T08:54:13.608Z,6.24
2022-12-28T08:56:40.024Z,6.11
2022-12-28T08:59:06.437Z,6.23
2022-12-28T09:01:37.285Z,6.35
2022-12-28T09:04:09.358Z,6.31
2022-12-28T09:06:35.765Z,6.34
2022-12-28T09:09:06.095Z,6.25
2022-12-28T09:11:33.306Z,6.27
2022-12-28T09:13:59.673Z,6.18
2022-12-28T09:16:26.088Z,6.30
2022-12-28T09:18:52.459Z,6.29
2022-12-28T09:21:18.826Z,6.32
2022-12-28T09:23:47.960Z,6.41
2022-12-28T09:26:14.351Z,6.44
2022-12-28T09:28:40.678Z,6.42
2022-12-28T09:31:07.082Z,6.45
2022-12-28T09:34:33.663Z,6.59
2022-12-28T09:36:38.639Z,6.61
2022-12-28T09:39:05.077Z,6.59
2022-12-28T09:41:31.542Z,6.79
2022-12-28T09:43:57.915Z,6.61
2022-12-28T09:46:24.342Z,6.61
2022-12-28T09:48:50.689Z,6.77
2022-12-28T09:51:17.065Z,6.75
2022-12-28T09:53:43.391Z,6.68
2022-12-28T09:56:09.747Z,6.54
2022-12-28T09:58:36.076Z,6.61
2022-12-28T10:01:05.321Z,6.72
2022-12-28T10:03:32.088Z,6.70
2022-12-28T10:05:58.823Z,6.75
2022-12-28T10:08:25.184Z,6.84
2022-12-28T10:10:51.576Z,6.79
2022-12-28T10:16:04.307Z,6.97
2022-12-28T10:18:34.619Z,6.97
2022-12-28T10:21:03.984Z,7.35
2022-12-28T10:23:30.328Z,7.37
2022-12-28T10:25:56.686Z,7.47
2022-12-28T10:28:23.071Z,7.69
2022-12-28T10:30:49.516Z,7.62
2022-12-28T10:33:15.878Z,7.76
2022-12-28T10:35:43.671Z,7.72
2022-12-28T10:38:09.981Z,7.40
2022-12-28T10:40:36.331Z,7.59
2022-12-28T10:43:10.195Z,7.54
2022-12-28T10:45:37.329Z,7.51
2022-12-28T10:48:04.199Z,7.47
2022-12-28T10:50:38.197Z,7.46
2022-12-28T10:53:04.934Z,7.59
2022-12-28T10:55:31.803Z,7.53
2022-12-28T11:00:52.226Z,7.29
2022-12-28T11:03:32.398Z,7.40
2022-12-28T11:05:58.743Z,7.44
2022-12-28T11:08:25.106Z,7.44
2022-12-28T11:10:51.495Z,7.38
2022-12-28T11:13:21.731Z,7.47
2022-12-28T11:15:48.665Z,7.46
2022-12-28T11:18:15.239Z,7.42
2022-12-28T11:20:41.618Z,7.19
2022-12-28T11:23:07.971Z,7.12
2022-12-28T11:25:34.617Z,7.23
2022-12-28T11:28:00.975Z,7.06
2022-12-28T11:30:27.421Z,7.13
2022-12-28T11:32:53.863Z,7.13
2022-12-28T11:35:20.205Z,7.02
2022-12-28T11:37:46.608Z,7.05
2022-12-28T11:40:12.951Z,7.21
2022-12-28T11:42:40.814Z,7.24
2022-12-28T11:45:07.784Z,7.31
2022-12-28T11:47:34.293Z,7.13
2022-12-28T11:50:00.663Z,7.27
2022-12-28T11:52:34.125Z,7.36
2022-12-28T11:55:00.522Z,7.32
2022-12-28T11:57:26.908Z,7.40
2022-12-28T11:59:53.288Z,7.49
2022-12-28T12:02:19.713Z,7.53
2022-12-28T12:04:46.536Z,7.50
2022-12-28T12:07:12.965Z,7.44
2022-12-28T12:09:39.364Z,7.49
2022-12-28T12:12:05.685Z,7.31
2022-12-28T12:14:32.092Z,7.45
2022-12-28T12:17:03.542Z,7.45
2022-12-28T12:19:30.148Z,7.49
2022-12-28T12:21:56.508Z,7.41
2022-12-28T12:24:26.791Z,7.48
2022-12-28T12:26:53.407Z,7.39
2022-12-28T12:29:19.790Z,7.42
2022-12-28T12:31:46.241Z,7.31
2022-12-28T12:34:19.039Z,7.41
2022-12-28T12:36:47.850Z,7.53
2022-12-28T12:39:14.289Z,7.94
2022-12-28T12:41:40.617Z,8.45
2022-12-28T12:44:07.008Z,8.44
2022-12-28T12:46:33.418Z,8.95
2022-12-28T12:48:59.799Z,9.10
2022-12-28T12:51:26.224Z,8.51
2022-12-28T12:53:52.661Z,8.78
2022-12-28T12:56:19.036Z,8.84
2022-12-28T12:58:45.460Z,8.86
2022-12-28T13:01:11.930Z,9.31
2022-12-28T13:03:38.412Z,9.29
2022-12-28T13:06:04.784Z,9.34
2022-12-28T13:08:31.125Z,8.83
2022-12-28T13:10:57.560Z,8.62
2022-12-28T13:13:23.894Z,8.16
2022-12-28T13:15:50.327Z,8.72
2022-12-28T13:21:07.296Z,8.95
2022-12-28T13:23:38.786Z,8.54
2022-12-28T13:26:05.155Z,8.46
2022-12-28T13:28:31.576Z,8.44
2022-12-28T13:30:59.024Z,8.18
2022-12-28T13:33:25.414Z,8.07
2022-12-28T13:35:51.750Z,8.01
2022-12-28T13:38:18.810Z,8.08
2022-12-28T13:40:45.340Z,8.11
2022-12-28T13:43:12.092Z,7.98
2022-12-28T13:45:38.449Z,8.03
2022-12-28T13:48:05.351Z,7.99
2022-12-28T13:50:31.695Z,8.02
2022-12-28T13:52:58.240Z,7.87
2022-12-28T13:55:24.709Z,7.80
2022-12-28T13:57:57.364Z,7.82
2022-12-28T14:00:25.810Z,7.86
2022-12-28T14:02:52.154Z,7.78
2022-12-28T14:05:18.637Z,7.82
2022-12-28T14:07:45.018Z,7.71
2022-12-28T14:10:11.423Z,7.77
2022-12-28T14:12:37.848Z,7.69
2022-12-28T14:15:04.214Z,7.71
2022-12-28T14:17:30.562Z,7.70
2022-12-28T14:19:57.950Z,7.75
2022-12-28T14:22:24.344Z,7.67
2022-12-28T14:24:50.716Z,7.67
2022-12-28T14:27:17.081Z,7.75
2022-12-28T14:29:43.460Z,7.68
2022-12-28T14:32:09.807Z,7.66
2022-12-28T14:34:36.338Z,7.59
2022-12-28T14:37:02.744Z,7.68
2022-12-28T14:39:29.101Z,7.65
2022-12-28T14:41:55.515Z,7.63
2022-12-28T14:44:21.885Z,7.57
2022-12-28T14:46:52.459Z,7.55
2022-12-28T14:49:19.048Z,7.65
2022-12-28T14:51:45.415Z,7.57
2022-12-28T14:54:11.763Z,7.62
2022-12-28T14:56:38.202Z,7.63
2022-12-28T14:59:04.564Z,7.57
2022-12-28T15:01:31.116Z,7.49
2022-12-28T15:03:57.562Z,7.54
2022-12-28T15:06:24.066Z,7.65
2022-12-28T15:08:50.418Z,7.68
2022-12-28T15:11:16.767Z,7.63
2022-12-28T15:13:43.849Z,7.63
2022-12-28T15:16:10.312Z,7.66
2022-12-28T15:18:37.617Z,7.52
2022-12-28T15:21:04.132Z,7.63
2022-12-28T15:23:30.549Z,7.74
2022-12-28T15:25:56.901Z,7.65
2022-12-28T15:28:23.570Z,7.62
2022-12-28T15:30:49.952Z,7.63
2022-12-28T15:33:17.592Z,7.66
2022-12-28T15:35:43.979Z,7.70
2022-12-28T15:38:10.391Z,7.68
2022-12-28T15:40:36.720Z,7.78
2022-12-28T15:43:03.063Z,7.83
2022-12-28T15:45:29.616Z,7.74
2022-12-28T15:47:56.018Z,7.77
2022-12-28T15:50:22.434Z,7.77
2022-12-28T15:52:48.909Z,7.72
2022-12-28T15:55:17.822Z,7.82
2022-12-28T15:57:44.157Z,7.71
2022-12-28T16:00:10.519Z,7.69
2022-12-28T16:02:37.170Z,7.68
2022-12-28T16:05:03.713Z,7.75
2022-12-28T16:07:30.072Z,7.73
2022-12-28T16:09:56.682Z,7.77
2022-12-28T16:12:23.007Z,7.77
2022-12-28T16:14:49.452Z,7.80
2022-12-28T16:17:15.917Z,7.80
2022-12-28T16:19:45.441Z,7.65
2022-12-28T16:22:14.152Z,7.66
2022-12-28T16:24:40.610Z,7.68
2022-12-28T16:27:07.001Z,7.56
2022-12-28T16:29:33.564Z,7.68
2022-12-28T16:32:00.290Z,7.65
2022-12-28T16:34:28.190Z,7.54
2022-12-28T16:36:57.270Z,7.63
2022-12-28T16:39:25.867Z,7.68
2022-12-28T16:41:52.266Z,7.61
2022-12-28T16:44:18.638Z,7.68
2022-12-28T16:46:45.020Z,7.71
2022-12-28T16:49:11.362Z,7.61
2022-12-28T16:51:37.752Z,7.66
2022-12-28T16:54:06.179Z,7.79
2022-12-28T16:56:32.538Z,7.74
2022-12-28T16:58:58.904Z,7.55
2022-12-28T17:01:25.313Z,7.57
2022-12-28T17:03:51.852Z,7.68
2022-12-28T17:06:18.350Z,7.61
2022-12-28T17:08:47.725Z,7.65
2022-12-28T17:11:14.136Z,7.60
2022-12-28T17:13:43.424Z,7.68
2022-12-28T17:16:09.916Z,7.62
2022-12-28T17:18:36.353Z,7.59
2022-12-28T17:21:06.651Z,7.57
2022-12-28T17:23:33.472Z,7.56
2022-12-28T17:25:59.827Z,7.52
2022-12-28T17:28:26.155Z,7.67
2022-12-28T17:30:52.593Z,7.59
2022-12-28T17:33:20.019Z,7.57
2022-12-28T17:35:46.514Z,7.68
2022-12-28T17:38:12.863Z,7.59
2022-12-28T17:40:39.330Z,7.63
2022-12-28T17:43:05.735Z,7.77
2022-12-28T17:45:32.126Z,7.66
2022-12-28T17:47:58.567Z,7.81
2022-12-28T17:50:25.097Z,7.71
2022-12-28T17:52:51.439Z,7.75
2022-12-28T17:55:17.796Z,7.66
2022-12-28T17:57:44.176Z,7.86
2022-12-28T18:00:10.689Z,7.89
2022-12-28T18:02:40.594Z,7.86
2022-12-28T18:05:07.073Z,7.67
2022-12-28T18:07:33.553Z,7.74
2022-12-28T18:09:59.945Z,7.64
2022-12-28T18:12:26.285Z,7.35
2022-12-28T18:14:52.860Z,7.62
2022-12-28T18:17:23.461Z,7.68
2022-12-28T18:19:50.180Z,7.55
2022-12-28T18:22:16.690Z,7.57
2022-12-28T18:24:43.126Z,7.59
2022-12-28T18:27:12.256Z,7.67
2022-12-28T18:29:38.748Z,7.61
2022-12-28T18:32:08.279Z,7.39
2022-12-28T18:34:34.726Z,7.29
2022-12-28T18:37:01.918Z,7.27
2022-12-28T18:39:28.282Z,7.25
2022-12-28T18:41:54.751Z,7.29
2022-12-28T18:44:23.806Z,7.34
2022-12-28T18:46:50.286Z,7.26
2022-12-28T18:49:16.652Z,7.23
2022-12-28T18:51:43.024Z,7.42
2022-12-28T18:54:09.436Z,7.31
2022-12-28T18:56:35.891Z,7.48
2022-12-28T18:59:02.364Z,7.34
2022-12-28T19:04:15.733Z,7.19
2022-12-28T19:06:46.335Z,7.25
2022-12-28T19:09:12.781Z,7.30
2022-12-28T19:11:39.296Z,7.13
2022-12-28T19:14:05.688Z,7.09
2022-12-28T19:16:32.553Z,7.14
2022-12-28T19:18:59.218Z,7.27
2022-12-28T19:21:28.440Z,7.17
2022-12-28T19:23:54.907Z,7.24
2022-12-28T19:26:21.334Z,7.24
2022-12-28T19:28:47.719Z,7.26
2022-12-28T19:31:14.307Z,7.28
2022-12-28T19:33:40.746Z,7.25
2022-12-28T19:36:07.122Z,7.20
2022-12-28T19:38:33.570Z,7.30
2022-12-28T19:41:00.033Z,7.50
2022-12-28T19:43:26.536Z,7.43
2022-12-28T19:45:52.906Z,7.38
2022-12-28T19:48:19.276Z,7.50
2022-12-28T19:50:45.619Z,7.60
2022-12-28T19:53:11.995Z,7.58
2022-12-28T19:55:39.611Z,7.64
2022-12-28T19:58:05.960Z,7.77
2022-12-28T20:00:32.466Z,7.73
2022-12-28T20:02:58.889Z,7.45
2022-12-28T20:05:25.885Z,7.40
2022-12-28T20:07:52.256Z,7.65
2022-12-28T20:10:18.640Z,7.69
2022-12-28T20:12:44.992Z,7.68
2022-12-28T20:15:11.365Z,7.63
2022-12-28T20:17:37.680Z,7.75
2022-12-28T20:20:04.084Z,7.62
2022-12-28T20:22:30.525Z,7.53
2022-12-28T20:24:56.892Z,7.74
2022-12-28T20:27:24.523Z,7.95
2022-12-28T20:29:50.861Z,7.91
2022-12-28T20:32:17.260Z,7.94
2022-12-28T20:34:43.713Z,7.88
2022-12-28T20:37:10.101Z,7.97
2022-12-28T20:39:36.529Z,7.94
2022-12-28T20:42:21.620Z,8.08
2022-12-28T20:44:47.962Z,7.91
2022-12-28T20:47:14.593Z,7.95
2022-12-28T20:49:41.036Z,7.86
2022-12-28T20:52:07.404Z,7.95
2022-12-28T20:54:33.754Z,7.99
2022-12-28T20:57:00.127Z,8.03
2022-12-28T20:59:26.476Z,8.00
2022-12-28T21:01:55.466Z,8.08
2022-12-28T21:04:28.232Z,7.98
2022-12-28T21:07:19.961Z,7.94
2022-12-28T21:09:50.693Z,7.89
2022-12-28T21:12:17.375Z,7.96
2022-12-28T21:14:44.033Z,8.03
2022-12-28T21:17:10.695Z,8.04
2022-12-28T21:19:42.430Z,8.26
2022-12-28T21:22:08.864Z,8.06
2022-12-28T21:24:35.299Z,8.08
2022-12-28T21:27:01.766Z,8.14
2022-12-28T21:29:28.092Z,8.02
2022-12-28T21:31:56.955Z,7.97
2022-12-28T21:34:23.383Z,8.06
2022-12-28T21:36:49.791Z,8.03
2022-12-28T21:39:16.165Z,7.94
2022-12-28T21:41:48.606Z,7.68
2022-12-28T21:44:15.083Z,7.69
2022-12-28T21:46:41.564Z,7.73
2022-12-28T21:49:11.050Z,7.81
2022-12-28T21:51:38.679Z,7.63
2022-12-28T21:54:05.053Z,7.61
2022-12-28T21:56:31.592Z,7.71
2022-12-28T21:58:57.928Z,7.54
2022-12-28T22:01:43.270Z,7.48
2022-12-28T22:04:28.669Z,7.42
2022-12-28T22:06:55.029Z,7.67
2022-12-28T22:09:40.055Z,7.70
2022-12-28T22:12:25.125Z,7.72
2022-12-28T22:15:11.469Z,7.86
2022-12-28T22:17:37.876Z,7.91
2022-12-28T22:20:04.272Z,7.84
2022-12-28T22:22:30.627Z,7.97
2022-12-28T22:24:59.486Z,7.61
2022-12-28T22:27:25.835Z,7.65
2022-12-28T22:29:52.280Z,7.74
2022-12-28T22:32:18.670Z,7.84
2022-12-28T22:34:45.120Z,7.84
2022-12-28T22:37:13.823Z,7.65
2022-12-28T22:39:40.182Z,7.57
2022-12-28T22:42:08.573Z,7.68
2022-12-28T22:44:34.910Z,7.65
2022-12-28T22:47:01.288Z,7.84
2022-12-28T22:49:27.623Z,7.86
2022-12-28T22:51:53.988Z,7.82
2022-12-28T22:54:20.320Z,7.88
2022-12-28T22:56:46.676Z,7.94
2022-12-28T22:59:15.415Z,7.97
2022-12-28T23:01:43.483Z,7.97
2022-12-28T23:04:10.001Z,8.00
2022-12-28T23:06:36.348Z,7.93
2022-12-28T23:09:02.673Z,7.87
2022-12-28T23:11:39.365Z,7.92
2022-12-28T23:14:24.446Z,7.90
2022-12-28T23:16:50.818Z,7.92
2022-12-28T23:19:35.960Z,7.91
2022-12-28T23:22:21.077Z,7.95
2022-12-28T23:25:06.043Z,8.03
2022-12-28T23:27:32.395Z,8.12
2022-12-28T23:29:58.773Z,8.32
2022-12-28T23:32:25.140Z,8.41
2022-12-28T23:34:51.464Z,8.34
2022-12-28T23:37:17.807Z,8.41
2022-12-28T23:39:44.156Z,8.56
2022-12-28T23:42:10.515Z,8.55
2022-12-28T23:44:39.890Z,8.37
2022-12-28T23:47:06.508Z,8.59
2022-12-28T23:49:32.872Z,8.70
2022-12-28T23:51:59.223Z,8.70
2022-12-28T23:54:25.548Z,8.65
2022-12-28T23:56:52.011Z,8.69
2022-12-28T23:59:18.510Z,8.41
